createdAt,value
2019-03-03T00:03:48.163Z,7.17
2019-03-03T00:08:52.411Z,6.80
2019-03-03T00:13:57.008Z,8.60
2019-03-03T00:19:01.381Z,7.10
2019-03-03T00:24:05.440Z,8.97
2019-03-03T00:29:09.796Z,7.90
2019-03-03T00:34:14.455Z,10.00
2019-03-03T00:39:33.902Z,9.67
2019-03-03T00:44:49.407Z,9.90
2019-03-03T00:50:15.555Z,9.73
2019-03-03T00:55:57.103Z,10.17
2019-03-03T01:01:08.465Z,8.63
2019-03-03T01:06:28.587Z,8.60
2019-03-03T01:11:58.040Z,8.43
2019-03-03T01:17:29.183Z,7.53
2019-03-03T01:22:39.327Z,6.67
2019-03-03T01:27:43.454Z,6.70
2019-03-03T01:32:47.530Z,6.60
2019-03-03T01:37:52.019Z,5.30
2019-03-03T01:42:56.778Z,6.17
2019-03-03T01:48:01.057Z,4.30
2019-03-03T01:53:05.111Z,4.33
2019-03-03T01:58:09.103Z,4.87
2019-03-03T02:03:13.403Z,5.60
2019-03-03T02:08:17.994Z,4.10
2019-03-03T02:13:22.514Z,3.97
2019-03-03T02:18:26.561Z,4.37
2019-03-03T02:23:30.615Z,3.80
2019-03-03T02:28:35.240Z,3.80
2019-03-03T02:33:39.325Z,4.03
2019-03-03T02:38:43.886Z,3.33
2019-03-03T02:43:47.934Z,4.80
2019-03-03T02:48:52.253Z,3.30
2019-03-03T02:53:56.267Z,4.90
2019-03-03T02:59:00.739Z,4.03
2019-03-03T03:04:04.823Z,5.13
2019-03-03T03:09:21.476Z,3.50
2019-03-03T03:14:47.552Z,4.13
2019-03-03T03:20:13.724Z,3.53
2019-03-03T03:25:35.703Z,4.00
2019-03-03T03:31:05.323Z,3.50
2019-03-03T03:36:22.041Z,3.40
2019-03-03T03:41:44.000Z,3.40
2019-03-03T03:46:59.702Z,3.17
2019-03-03T03:52:29.151Z,3.73
2019-03-03T03:57:50.712Z,3.90
2019-03-03T04:03:08.619Z,3.13
2019-03-03T04:08:18.879Z,3.13
2019-03-03T04:13:35.610Z,3.20
2019-03-03T04:18:48.502Z,2.83
2019-03-03T04:24:21.460Z,4.17
2019-03-03T04:29:39.358Z,3.17
2019-03-03T04:34:53.875Z,2.97
2019-03-03T04:40:19.791Z,3.40
2019-03-03T04:45:30.307Z,3.60
2019-03-03T04:50:47.647Z,3.90
2019-03-03T04:56:02.584Z,3.80
2019-03-03T05:01:14.660Z,3.70
2019-03-03T05:06:43.428Z,3.10
2019-03-03T05:13:08.094Z,3.70
2019-03-03T05:18:32.901Z,3.80
2019-03-03T05:23:37.163Z,3.37
2019-03-03T05:28:41.411Z,4.10
2019-03-03T05:33:45.823Z,3.70
2019-03-03T05:38:50.017Z,3.23
2019-03-03T05:43:54.078Z,3.63
2019-03-03T05:48:57.986Z,3.63
2019-03-03T05:54:02.167Z,4.20
2019-03-03T05:59:06.048Z,3.10
2019-03-03T06:04:09.998Z,3.50
2019-03-03T06:09:14.242Z,3.50
2019-03-03T06:14:18.162Z,3.70
2019-03-03T06:19:22.040Z,3.77
2019-03-03T06:24:26.346Z,3.33
2019-03-03T06:29:30.590Z,5.30
2019-03-03T06:34:34.577Z,3.30
2019-03-03T06:39:38.791Z,4.37
2019-03-03T06:44:42.922Z,3.73
2019-03-03T06:49:46.914Z,4.07
2019-03-03T06:54:51.380Z,3.70
2019-03-03T06:59:55.322Z,2.90
2019-03-03T07:04:59.962Z,3.83
2019-03-03T07:10:04.348Z,3.50
2019-03-03T07:15:13.711Z,4.10
2019-03-03T07:20:17.931Z,3.90
2019-03-03T07:25:22.027Z,4.40
2019-03-03T07:30:26.085Z,3.63
2019-03-03T07:35:30.259Z,4.50
2019-03-03T07:40:34.530Z,3.40
2019-03-03T07:45:38.574Z,3.50
2019-03-03T07:50:42.730Z,3.80
2019-03-03T07:55:46.935Z,3.60
2019-03-03T08:00:51.167Z,3.67
2019-03-03T08:05:55.401Z,3.90
2019-03-03T08:10:59.951Z,4.10
2019-03-03T08:16:04.320Z,4.10
2019-03-03T08:21:08.273Z,3.13
2019-03-03T08:26:13.490Z,3.90
2019-03-03T08:31:18.032Z,2.90
2019-03-03T08:36:22.239Z,3.83
2019-03-03T08:41:26.467Z,3.27
2019-03-03T08:46:42.711Z,3.03
2019-03-03T08:52:05.822Z,3.30
2019-03-03T08:57:18.143Z,3.63
2019-03-03T09:02:40.834Z,2.60
2019-03-03T09:07:59.830Z,2.80
2019-03-03T09:13:09.936Z,3.90
2019-03-03T09:18:32.002Z,2.93
2019-03-03T09:23:46.186Z,2.83
2019-03-03T09:28:59.287Z,2.60
2019-03-03T09:34:20.887Z,1.93
2019-03-03T09:39:43.485Z,2.30
2019-03-03T09:45:05.416Z,2.13
2019-03-03T09:50:40.714Z,1.50
2019-03-03T09:55:58.378Z,1.70
2019-03-03T10:01:20.573Z,3.20
2019-03-03T10:06:46.991Z,1.60
2019-03-03T10:12:16.682Z,2.10
2019-03-03T10:17:40.010Z,1.93
2019-03-03T10:23:01.674Z,1.77
2019-03-03T10:28:34.053Z,1.57
2019-03-03T10:34:02.896Z,1.63
2019-03-03T10:39:14.559Z,1.90
2019-03-03T10:44:43.863Z,1.57
2019-03-03T10:50:19.277Z,1.63
2019-03-03T10:55:34.515Z,1.40
2019-03-03T11:00:57.394Z,1.40
2019-03-03T11:06:19.997Z,1.50
2019-03-03T11:11:33.582Z,1.63
2019-03-03T11:16:52.784Z,9.73
2019-03-03T11:22:15.249Z,8.50
2019-03-03T11:27:44.191Z,7.40
2019-03-03T11:33:09.284Z,9.40
2019-03-03T11:38:21.011Z,24.00
2019-03-03T11:43:33.326Z,13.23
2019-03-03T11:48:53.543Z,8.67
2019-03-03T11:54:20.484Z,5.57
2019-03-03T11:59:46.436Z,4.70
2019-03-03T12:05:21.774Z,3.73
2019-03-03T12:10:44.767Z,2.37
2019-03-03T12:16:08.000Z,17.00
2019-03-03T12:21:49.448Z,10.60
2019-03-03T12:27:15.076Z,7.07
2019-03-03T12:32:31.652Z,6.47
2019-03-03T12:37:53.123Z,4.00
2019-03-03T12:43:02.851Z,2.90
2019-03-03T12:48:37.931Z,2.67
2019-03-03T12:53:53.492Z,2.17
2019-03-03T12:59:28.728Z,2.00
2019-03-03T13:04:43.531Z,1.20
2019-03-03T13:10:02.918Z,0.97
2019-03-03T13:15:19.447Z,1.03
2019-03-03T13:20:41.463Z,1.10
2019-03-03T13:25:55.334Z,1.40
2019-03-03T13:31:07.147Z,3.77
2019-03-03T13:36:38.709Z,2.67
2019-03-03T13:42:03.620Z,2.87
2019-03-03T13:47:09.396Z,1.57
2019-03-03T13:52:14.299Z,1.73
2019-03-03T13:57:18.738Z,2.60
2019-03-03T14:02:39.295Z,2.90
2019-03-03T14:07:45.259Z,1.10
2019-03-03T14:12:50.021Z,1.93
2019-03-03T14:17:54.007Z,1.60
2019-03-03T14:22:58.363Z,1.60
2019-03-03T14:28:02.713Z,2.77
2019-03-03T14:33:06.887Z,1.30
2019-03-03T14:38:11.100Z,1.40
2019-03-03T14:43:15.140Z,1.83
2019-03-03T14:48:22.426Z,1.60
2019-03-03T14:53:27.811Z,2.97
2019-03-03T14:58:32.434Z,2.23
2019-03-03T15:03:36.736Z,2.20
2019-03-03T15:08:40.939Z,1.83
2019-03-03T15:13:44.979Z,2.80
2019-03-03T15:18:49.234Z,2.20
2019-03-03T15:23:53.407Z,2.37
2019-03-03T15:28:57.452Z,2.20
2019-03-03T15:34:11.168Z,15.10
2019-03-03T15:39:15.259Z,15.90
2019-03-03T15:44:19.740Z,12.70
2019-03-03T15:49:24.046Z,9.10
2019-03-03T15:54:28.340Z,8.10
2019-03-03T15:59:33.008Z,6.47
2019-03-03T16:04:37.679Z,5.13
2019-03-03T16:09:41.771Z,4.83
2019-03-03T16:14:45.975Z,3.73
2019-03-03T16:19:50.222Z,2.80
2019-03-03T16:24:54.344Z,3.50
2019-03-03T16:29:58.806Z,5.40
2019-03-03T16:35:03.073Z,3.80
2019-03-03T16:40:08.767Z,4.67
2019-03-03T16:45:13.779Z,3.07
2019-03-03T16:50:18.230Z,4.40
2019-03-03T16:55:22.763Z,3.30
2019-03-03T17:00:26.819Z,3.63
2019-03-03T17:05:31.094Z,3.77
2019-03-03T17:10:35.122Z,3.10
2019-03-03T17:15:39.619Z,3.00
2019-03-03T17:20:43.790Z,3.80
2019-03-03T17:25:48.003Z,4.67
2019-03-03T17:30:52.546Z,3.73
2019-03-03T17:35:56.899Z,4.33
2019-03-03T17:41:01.172Z,5.73
2019-03-03T17:46:05.783Z,4.03
2019-03-03T17:51:10.331Z,5.10
2019-03-03T17:56:14.347Z,5.77
2019-03-03T18:01:18.411Z,4.67
2019-03-03T18:06:22.648Z,4.43
2019-03-03T18:11:27.111Z,4.00
2019-03-03T18:16:31.179Z,3.93
2019-03-03T18:21:35.585Z,4.27
2019-03-03T18:26:39.542Z,4.27
2019-03-03T18:31:43.884Z,2.70
2019-03-03T18:36:48.232Z,4.60
2019-03-03T18:41:52.199Z,4.10
2019-03-03T18:46:56.299Z,4.87
2019-03-03T18:52:00.542Z,4.30
2019-03-03T18:57:04.643Z,4.83
2019-03-03T19:02:09.427Z,4.53
2019-03-03T19:07:13.470Z,5.75
2019-03-03T19:12:17.771Z,5.27
2019-03-03T19:17:21.779Z,5.07
2019-03-03T19:22:26.028Z,3.93
2019-03-03T19:27:30.242Z,5.43
2019-03-03T19:32:34.411Z,5.80
2019-03-03T19:37:38.773Z,4.40
2019-03-03T19:42:43.263Z,5.00
2019-03-03T19:47:47.374Z,4.63
2019-03-03T19:52:51.974Z,3.83
2019-03-03T19:57:56.079Z,4.90
2019-03-03T20:03:00.440Z,4.90
2019-03-03T20:08:04.946Z,4.53
2019-03-03T20:13:09.407Z,4.50
2019-03-03T20:18:13.706Z,4.17
2019-03-03T20:23:18.019Z,4.40
2019-03-03T20:28:22.490Z,4.97
2019-03-03T20:33:26.635Z,5.10
2019-03-03T20:38:31.492Z,3.83
2019-03-03T20:43:35.747Z,4.40
2019-03-03T20:48:39.825Z,4.60
2019-03-03T20:53:44.717Z,4.07
2019-03-03T20:58:49.147Z,5.80
2019-03-03T21:03:53.116Z,5.90
2019-03-03T21:08:57.392Z,4.73
2019-03-03T21:14:03.738Z,3.63
2019-03-03T21:19:08.029Z,3.97
2019-03-03T21:24:12.259Z,4.43
2019-03-03T21:29:16.255Z,3.77
2019-03-03T21:34:20.748Z,4.60
2019-03-03T21:39:25.183Z,3.63
2019-03-03T21:44:29.708Z,4.07
2019-03-03T21:49:34.458Z,4.03
2019-03-03T21:54:38.876Z,4.43
2019-03-03T21:59:42.879Z,4.07
2019-03-03T22:04:47.095Z,3.47
2019-03-03T22:09:51.144Z,3.53
2019-03-03T22:14:55.431Z,3.43
2019-03-03T22:19:59.491Z,3.50
2019-03-03T22:25:03.643Z,3.83
2019-03-03T22:30:08.416Z,4.70
2019-03-03T22:35:12.516Z,3.40
2019-03-03T22:40:16.659Z,3.43
2019-03-03T22:45:37.888Z,3.20
2019-03-03T22:50:42.762Z,2.93
2019-03-03T22:55:46.744Z,3.23
2019-03-03T23:01:12.701Z,2.70
2019-03-03T23:06:43.323Z,3.47
2019-03-03T23:12:17.835Z,2.97
2019-03-03T23:17:51.047Z,2.07
2019-03-03T23:23:26.892Z,2.50
2019-03-03T23:28:31.877Z,2.93
2019-03-03T23:33:37.023Z,2.50
2019-03-03T23:38:41.771Z,2.60
2019-03-03T23:43:46.175Z,3.00
2019-03-03T23:48:50.331Z,3.07
2019-03-03T23:53:54.696Z,2.63
2019-03-03T23:58:58.824Z,2.20
